ADDS TAF Data INFO
IDs: Format: Raw Decoded Include METARs

Data at: 1534 UTC 18 Jan 2018

KLBB 181453Z 23005KT 10SM FEW040 M07/M19 A3030 RMK AO2 SLP284 T10721194 58003

KLBB 181120Z 1812/1912 23011KT P6SM SKC